sensor_id;sensor_type;location;lat;lon;timestamp;pressure;altitude;pressure_sealevel;temperature;humidity
7157;BME280;3620;49.862;8.758;2023-02-11T00:00:51;101220.13;;;4.28;95.81
7157;BME280;3620;49.862;8.758;2023-02-11T00:03:17;101226.44;;;4.49;95.22
7157;BME280;3620;49.862;8.758;2023-02-11T00:05:45;101233.41;;;4.51;95.58
7157;BME280;3620;49.862;8.758;2023-02-11T00:08:11;101232.44;;;4.44;95.59
7157;BME280;3620;49.862;8.758;2023-02-11T00:10:41;101235.16;;;4.51;95.80
7157;BME280;3620;49.862;8.758;2023-02-11T00:13:10;101235.16;;;4.51;95.52
7157;BME280;3620;49.862;8.758;2023-02-11T00:15:37;101236.19;;;4.68;94.16
7157;BME280;3620;49.862;8.758;2023-02-11T00:18:03;101238.94;;;4.83;93.50
7157;BME280;3620;49.862;8.758;2023-02-11T00:20:30;101252.75;;;4.73;93.07
7157;BME280;3620;49.862;8.758;2023-02-11T00:22:58;101242.88;;;4.44;94.73
7157;BME280;3620;49.862;8.758;2023-02-11T00:25:24;101257.88;;;4.64;94.74
7157;BME280;3620;49.862;8.758;2023-02-11T00:27:51;101238.31;;;4.24;96.51
7157;BME280;3620;49.862;8.758;2023-02-11T00:30:17;101251.38;;;4.28;96.93
7157;BME280;3620;49.862;8.758;2023-02-11T00:32:44;101242.63;;;4.23;96.92
7157;BME280;3620;49.862;8.758;2023-02-11T00:35:10;101249.91;;;4.52;96.08
7157;BME280;3620;49.862;8.758;2023-02-11T00:37:37;101245.88;;;4.04;98.09
7157;BME280;3620;49.862;8.758;2023-02-11T00:40:05;101229.38;;;4.07;98.56
7157;BME280;3620;49.862;8.758;2023-02-11T00:42:32;101226.72;;;4.02;98.74
7157;BME280;3620;49.862;8.758;2023-02-11T00:45:00;101228.44;;;4.00;98.54
7157;BME280;3620;49.862;8.758;2023-02-11T00:47:26;101226.75;;;4.04;98.60
7157;BME280;3620;49.862;8.758;2023-02-11T00:49:53;101221.63;;;4.11;98.21
7157;BME280;3620;49.862;8.758;2023-02-11T00:52:19;101229.19;;;4.64;95.36
7157;BME280;3620;49.862;8.758;2023-02-11T00:54:46;101217.06;;;4.66;94.36
7157;BME280;3620;49.862;8.758;2023-02-11T00:57:14;101211.84;;;4.66;94.74
7157;BME280;3620;49.862;8.758;2023-02-11T00:59:41;101207.56;;;4.72;94.07
7157;BME280;3620;49.862;8.758;2023-02-11T01:02:07;101203.59;;;4.26;96.48
7157;BME280;3620;49.862;8.758;2023-02-11T01:04:34;101213.31;;;4.42;96.02
7157;BME280;3620;49.862;8.758;2023-02-11T01:07:00;101200.53;;;4.62;95.92
7157;BME280;3620;49.862;8.758;2023-02-11T01:09:27;101208.34;;;4.62;94.37
7157;BME280;3620;49.862;8.758;2023-02-11T01:11:53;101204.13;;;4.78;94.42
7157;BME280;3620;49.862;8.758;2023-02-11T01:14:21;101204.88;;;4.65;94.46
7157;BME280;3620;49.862;8.758;2023-02-11T01:16:48;101196.44;;;4.90;93.96
7157;BME280;3620;49.862;8.758;2023-02-11T01:19:14;101200.59;;;4.70;94.29
7157;BME280;3620;49.862;8.758;2023-02-11T01:21:41;101195.50;;;4.83;93.93
7157;BME280;3620;49.862;8.758;2023-02-11T01:24:07;101205.78;;;4.70;94.49
7157;BME280;3620;49.862;8.758;2023-02-11T01:26:34;101208.66;;;4.97;93.01
7157;BME280;3620;49.862;8.758;2023-02-11T01:29:00;101199.16;;;5.03;91.86
7157;BME280;3620;49.862;8.758;2023-02-11T01:31:29;101194.88;;;5.10;91.75
7157;BME280;3620;49.862;8.758;2023-02-11T01:33:56;101190.50;;;5.09;91.79
7157;BME280;3620;49.862;8.758;2023-02-11T01:36:23;101189.72;;;5.19;91.27
7157;BME280;3620;49.862;8.758;2023-02-11T01:38:49;101181.94;;;5.25;90.58
7157;BME280;3620;49.862;8.758;2023-02-11T01:41:16;101181.16;;;5.37;90.46
7157;BME280;3620;49.862;8.758;2023-02-11T01:43:44;101186.44;;;5.44;89.62
7157;BME280;3620;49.862;8.758;2023-02-11T01:46:19;101184.63;;;5.34;89.70
7157;BME280;3620;49.862;8.758;2023-02-11T01:48:53;101182.63;;;5.00;91.24
7157;BME280;3620;49.862;8.758;2023-02-11T01:51:23;101178.25;;;4.99;92.13
7157;BME280;3620;49.862;8.758;2023-02-11T01:53:52;101154.03;;;5.10;91.63
7157;BME280;3620;49.862;8.758;2023-02-11T01:56:45;101148.69;;;4.95;92.07
7157;BME280;3620;49.862;8.758;2023-02-11T01:59:38;101145.28;;;5.04;91.27
7157;BME280;3620;49.862;8.758;2023-02-11T02:02:09;101151.25;;;4.94;92.18
7157;BME280;3620;49.862;8.758;2023-02-11T02:04:43;101152.94;;;4.86;92.01
7157;BME280;3620;49.862;8.758;2023-02-11T02:07:16;101140.94;;;5.06;91.89
7157;BME280;3620;49.862;8.758;2023-02-11T02:09:48;101146.91;;;4.91;91.76
7157;BME280;3620;49.862;8.758;2023-02-11T02:12:18;101137.56;;;5.19;90.41
7157;BME280;3620;49.862;8.758;2023-02-11T02:14:44;101138.19;;;4.89;92.21
7157;BME280;3620;49.862;8.758;2023-02-11T02:17:23;101134.91;;;5.14;91.02
7157;BME280;3620;49.862;8.758;2023-02-11T02:20:15;101122.91;;;5.38;89.95
7157;BME280;3620;49.862;8.758;2023-02-11T02:23:10;101117.41;;;4.95;90.86
7157;BME280;3620;49.862;8.758;2023-02-11T02:26:27;101111.44;;;5.13;90.83
7157;BME280;3620;49.862;8.758;2023-02-11T02:29:28;101101.03;;;5.20;90.98
7157;BME280;3620;49.862;8.758;2023-02-11T02:32:36;101093.28;;;5.36;89.47
7157;BME280;3620;49.862;8.758;2023-02-11T02:35:13;101094.22;;;5.47;89.14
7157;BME280;3620;49.862;8.758;2023-02-11T02:37:46;101090.72;;;5.40;89.02
7157;BME280;3620;49.862;8.758;2023-02-11T02:40:20;101087.19;;;5.32;89.48
7157;BME280;3620;49.862;8.758;2023-02-11T02:42:49;101086.25;;;5.19;90.02
7157;BME280;3620;49.862;8.758;2023-02-11T02:45:16;101087.13;;;5.17;90.51
7157;BME280;3620;49.862;8.758;2023-02-11T02:47:45;101080.09;;;5.10;91.40
7157;BME280;3620;49.862;8.758;2023-02-11T02:50:14;101082.75;;;5.16;90.92
7157;BME280;3620;49.862;8.758;2023-02-11T02:52:48;101101.19;;;5.48;89.27
7157;BME280;3620;49.862;8.758;2023-02-11T02:55:41;101102.72;;;5.14;90.37
7157;BME280;3620;49.862;8.758;2023-02-11T03:01:03;101115.75;;;5.08;91.06
7157;BME280;3620;49.862;8.758;2023-02-11T03:03:40;101130.59;;;5.18;90.34
7157;BME280;3620;49.862;8.758;2023-02-11T03:06:12;101133.16;;;5.12;89.99
7157;BME280;3620;49.862;8.758;2023-02-11T03:08:44;101144.41;;;5.02;90.60
7157;BME280;3620;49.862;8.758;2023-02-11T03:11:14;101145.41;;;5.24;89.43
7157;BME280;3620;49.862;8.758;2023-02-11T03:13:43;101130.41;;;4.91;90.77
7157;BME280;3620;49.862;8.758;2023-02-11T03:16:14;101138.16;;;4.82;91.34
7157;BME280;3620;49.862;8.758;2023-02-11T03:18:48;101134.66;;;4.83;90.98
7157;BME280;3620;49.862;8.758;2023-02-11T03:21:16;101126.06;;;4.94;90.76
7157;BME280;3620;49.862;8.758;2023-02-11T03:23:49;101134.69;;;4.86;90.59
7157;BME280;3620;49.862;8.758;2023-02-11T03:26:25;101120.84;;;4.94;90.35
7157;BME280;3620;49.862;8.758;2023-02-11T03:28:56;101113.06;;;4.97;90.27
7157;BME280;3620;49.862;8.758;2023-02-11T03:31:29;101112.16;;;4.92;90.64
7157;BME280;3620;49.862;8.758;2023-02-11T03:34:03;101095.72;;;5.07;90.11
7157;BME280;3620;49.862;8.758;2023-02-11T03:36:36;101094.84;;;5.02;90.05
7157;BME280;3620;49.862;8.758;2023-02-11T03:39:06;101097.50;;;5.06;90.46
7157;BME280;3620;49.862;8.758;2023-02-11T03:41:34;101085.28;;;5.07;90.68
7157;BME280;3620;49.862;8.758;2023-02-11T03:44:03;101094.84;;;5.05;91.38
7157;BME280;3620;49.862;8.758;2023-02-11T03:46:32;101097.41;;;4.99;91.29
7157;BME280;3620;49.862;8.758;2023-02-11T03:49:05;101087.09;;;5.20;90.28
7157;BME280;3620;49.862;8.758;2023-02-11T03:51:35;101077.63;;;5.28;89.99
7157;BME280;3620;49.862;8.758;2023-02-11T03:54:07;101079.41;;;5.41;89.14
7157;BME280;3620;49.862;8.758;2023-02-11T03:56:38;101069.81;;;5.34;89.74
7157;BME280;3620;49.862;8.758;2023-02-11T03:59:07;101063.53;;;4.99;90.48
7157;BME280;3620;49.862;8.758;2023-02-11T04:01:34;101048.63;;;4.80;91.96
7157;BME280;3620;49.862;8.758;2023-02-11T04:04:00;101045.28;;;5.02;91.29
7157;BME280;3620;49.862;8.758;2023-02-11T04:06:28;101034.91;;;5.14;90.93
7157;BME280;3620;49.862;8.758;2023-02-11T04:08:55;101034.06;;;5.15;90.76
7157;BME280;3620;49.862;8.758;2023-02-11T04:11:21;101029.53;;;4.87;91.52
7157;BME280;3620;49.862;8.758;2023-02-11T04:13:47;101028.84;;;5.18;90.24
7157;BME280;3620;49.862;8.758;2023-02-11T04:16:14;101024.50;;;5.20;90.63
7157;BME280;3620;49.862;8.758;2023-02-11T04:18:40;101012.44;;;5.43;88.65
7157;BME280;3620;49.862;8.758;2023-02-11T04:21:07;101021.97;;;5.32;89.12
7157;BME280;3620;49.862;8.758;2023-02-11T04:23:35;101030.66;;;5.36;89.21
7157;BME280;3620;49.862;8.758;2023-02-11T04:26:02;101041.88;;;5.18;90.00
7157;BME280;3620;49.862;8.758;2023-02-11T04:28:29;101051.56;;;5.39;89.16
7157;BME280;3620;49.862;8.758;2023-02-11T04:30:55;101060.25;;;5.35;89.34
7157;BME280;3620;49.862;8.758;2023-02-11T04:33:23;101060.28;;;5.38;88.73
7157;BME280;3620;49.862;8.758;2023-02-11T04:35:49;101053.38;;;5.49;88.91
7157;BME280;3620;49.862;8.758;2023-02-11T04:38:16;101065.50;;;5.44;88.67
7157;BME280;3620;49.862;8.758;2023-02-11T04:40:44;101068.03;;;5.27;89.19
7157;BME280;3620;49.862;8.758;2023-02-11T04:43:10;101068.91;;;5.29;89.83
7157;BME280;3620;49.862;8.758;2023-02-11T04:45:37;101077.59;;;5.25;89.49
7157;BME280;3620;49.862;8.758;2023-02-11T04:48:03;101085.28;;;5.04;90.79
7157;BME280;3620;49.862;8.758;2023-02-11T04:50:30;101066.06;;;4.91;91.08
7157;BME280;3620;49.862;8.758;2023-02-11T04:52:56;101066.94;;;4.89;92.20
7157;BME280;3620;49.862;8.758;2023-02-11T04:55:23;101070.50;;;5.00;91.92
7157;BME280;3620;49.862;8.758;2023-02-11T04:57:51;101075.63;;;4.89;91.64
7157;BME280;3620;49.862;8.758;2023-02-11T05:00:17;101061.84;;;5.11;91.57
7157;BME280;3620;49.862;8.758;2023-02-11T05:02:44;101048.78;;;5.07;91.67
7157;BME280;3620;49.862;8.758;2023-02-11T05:05:11;101044.44;;;5.07;91.78
7157;BME280;3620;49.862;8.758;2023-02-11T05:07:37;101045.97;;;4.77;92.76
7157;BME280;3620;49.862;8.758;2023-02-11T05:10:04;101039.97;;;4.87;92.21
7157;BME280;3620;49.862;8.758;2023-02-11T05:12:32;101046.09;;;4.89;92.29
7157;BME280;3620;49.862;8.758;2023-02-11T05:14:59;101048.69;;;4.92;92.92
7157;BME280;3620;49.862;8.758;2023-02-11T05:17:26;101047.69;;;4.70;94.04
7157;BME280;3620;49.862;8.758;2023-02-11T05:19:52;101039.91;;;4.78;93.64
7157;BME280;3620;49.862;8.758;2023-02-11T05:22:19;101022.66;;;4.95;93.60
7157;BME280;3620;49.862;8.758;2023-02-11T05:24:46;101019.16;;;4.96;93.32
7157;BME280;3620;49.862;8.758;2023-02-11T05:27:12;101024.25;;;4.78;93.95
7157;BME280;3620;49.862;8.758;2023-02-11T05:29:39;101030.38;;;4.80;94.25
7157;BME280;3620;49.862;8.758;2023-02-11T05:32:07;101021.72;;;4.84;93.81
7157;BME280;3620;49.862;8.758;2023-02-11T05:34:33;101024.31;;;4.87;94.09
7157;BME280;3620;49.862;8.758;2023-02-11T05:37:00;101036.63;;;5.09;92.48
7157;BME280;3620;49.862;8.758;2023-02-11T05:39:26;101040.94;;;4.99;93.09
7157;BME280;3620;49.862;8.758;2023-02-11T05:41:53;101026.94;;;4.90;94.04
7157;BME280;3620;49.862;8.758;2023-02-11T05:44:19;101032.06;;;4.75;94.56
7157;BME280;3620;49.862;8.758;2023-02-11T05:46:46;101028.69;;;4.89;94.08
7157;BME280;3620;49.862;8.758;2023-02-11T05:49:15;101020.00;;;4.89;94.08
7157;BME280;3620;49.862;8.758;2023-02-11T05:51:41;101017.41;;;4.89;93.90
7157;BME280;3620;49.862;8.758;2023-02-11T05:54:08;101027.75;;;4.77;94.64
7157;BME280;3620;49.862;8.758;2023-02-11T05:56:34;101029.59;;;4.93;93.99
7157;BME280;3620;49.862;8.758;2023-02-11T05:59:01;101027.84;;;4.92;93.73
7157;BME280;3620;49.862;8.758;2023-02-11T06:01:28;101027.84;;;4.98;93.76
7157;BME280;3620;49.862;8.758;2023-02-11T06:03:54;101027.09;;;5.11;93.43
7157;BME280;3620;49.862;8.758;2023-02-11T06:06:23;101030.53;;;5.05;93.17
7157;BME280;3620;49.862;8.758;2023-02-11T06:08:50;101041.91;;;5.21;93.02
7157;BME280;3620;49.862;8.758;2023-02-11T06:11:17;101027.88;;;4.95;93.82
7157;BME280;3620;49.862;8.758;2023-02-11T06:13:44;101038.38;;;5.10;93.44
7157;BME280;3620;49.862;8.758;2023-02-11T06:16:11;101042.72;;;5.09;93.52
7157;BME280;3620;49.862;8.758;2023-02-11T06:18:37;101040.16;;;5.17;92.95
7157;BME280;3620;49.862;8.758;2023-02-11T06:21:06;101043.59;;;5.10;92.61
7157;BME280;3620;49.862;8.758;2023-02-11T06:23:34;101040.16;;;5.20;92.30
7157;BME280;3620;49.862;8.758;2023-02-11T06:26:01;101031.53;;;5.36;90.99
7157;BME280;3620;49.862;8.758;2023-02-11T06:28:28;101031.56;;;5.33;90.93
7157;BME280;3620;49.862;8.758;2023-02-11T06:30:55;101035.00;;;5.32;91.35
7157;BME280;3620;49.862;8.758;2023-02-11T06:33:22;101047.13;;;5.21;91.70
7157;BME280;3620;49.862;8.758;2023-02-11T06:35:49;101055.03;;;5.36;91.31
7157;BME280;3620;49.862;8.758;2023-02-11T06:38:15;101051.59;;;5.43;90.16
7157;BME280;3620;49.862;8.758;2023-02-11T06:40:47;101048.91;;;5.28;91.38
7157;BME280;3620;49.862;8.758;2023-02-11T06:43:14;101043.69;;;5.31;90.72
7157;BME280;3620;49.862;8.758;2023-02-11T06:45:40;101034.97;;;5.23;91.67
7157;BME280;3620;49.862;8.758;2023-02-11T06:48:07;101030.75;;;5.46;90.28
7157;BME280;3620;49.862;8.758;2023-02-11T06:50:34;101022.81;;;5.28;91.80
7157;BME280;3620;49.862;8.758;2023-02-11T06:53:00;101031.41;;;5.09;92.04
7157;BME280;3620;49.862;8.758;2023-02-11T06:55:27;101025.97;;;4.76;93.36
7157;BME280;3620;49.862;8.758;2023-02-11T06:57:55;101032.91;;;4.71;93.95
7157;BME280;3620;49.862;8.758;2023-02-11T07:00:21;101034.66;;;4.69;95.00
7157;BME280;3620;49.862;8.758;2023-02-11T07:02:48;101039.13;;;4.86;93.64
7157;BME280;3620;49.862;8.758;2023-02-11T07:05:15;101041.69;;;4.82;93.43
7157;BME280;3620;49.862;8.758;2023-02-11T07:07:41;101048.59;;;4.77;93.63
7157;BME280;3620;49.862;8.758;2023-02-11T07:10:08;101049.53;;;4.89;92.97
7157;BME280;3620;49.862;8.758;2023-02-11T07:12:35;101057.44;;;4.97;92.92
7157;BME280;3620;49.862;8.758;2023-02-11T07:15:03;101058.25;;;4.90;93.52
7157;BME280;3620;49.862;8.758;2023-02-11T07:17:29;101051.28;;;4.92;93.07
7157;BME280;3620;49.862;8.758;2023-02-11T07:19:56;101050.38;;;4.87;93.68
7157;BME280;3620;49.862;8.758;2023-02-11T07:22:22;101053.94;;;4.95;93.55
7157;BME280;3620;49.862;8.758;2023-02-11T07:24:49;101056.59;;;5.05;93.14
7157;BME280;3620;49.862;8.758;2023-02-11T07:27:15;101051.31;;;4.98;92.67
7157;BME280;3620;49.862;8.758;2023-02-11T07:29:42;101048.69;;;4.92;93.03
7157;BME280;3620;49.862;8.758;2023-02-11T07:32:11;101050.41;;;4.90;93.97
7157;BME280;3620;49.862;8.758;2023-02-11T07:34:38;101047.00;;;4.97;93.69
7157;BME280;3620;49.862;8.758;2023-02-11T07:37:04;101040.06;;;5.02;93.32
7157;BME280;3620;49.862;8.758;2023-02-11T07:39:31;101042.75;;;5.11;92.52
7157;BME280;3620;49.862;8.758;2023-02-11T07:41:58;101039.31;;;5.22;92.14
7157;BME280;3620;49.862;8.758;2023-02-11T07:44:24;101033.19;;;5.13;92.34
7157;BME280;3620;49.862;8.758;2023-02-11T07:46:51;101035.00;;;5.26;91.65
7157;BME280;3620;49.862;8.758;2023-02-11T07:49:19;101024.50;;;5.20;91.86
7157;BME280;3620;49.862;8.758;2023-02-11T07:51:45;101036.69;;;5.21;91.27
7157;BME280;3620;49.862;8.758;2023-02-11T07:54:14;101050.69;;;5.35;90.34
7157;BME280;3620;49.862;8.758;2023-02-11T07:56:40;101059.31;;;5.25;91.27
7157;BME280;3620;49.862;8.758;2023-02-11T07:59:07;101063.72;;;5.31;91.02
7157;BME280;3620;49.862;8.758;2023-02-11T08:01:33;101066.31;;;5.26;91.43
7157;BME280;3620;49.862;8.758;2023-02-11T08:04:00;101064.56;;;5.31;90.67
7157;BME280;3620;49.862;8.758;2023-02-11T08:06:30;101076.72;;;5.23;91.34
7157;BME280;3620;49.862;8.758;2023-02-11T08:09:02;101076.78;;;5.35;90.65
7157;BME280;3620;49.862;8.758;2023-02-11T08:11:29;101075.88;;;5.32;91.34
7157;BME280;3620;49.862;8.758;2023-02-11T08:13:55;101080.28;;;5.43;90.54
7157;BME280;3620;49.862;8.758;2023-02-11T08:16:24;101095.03;;;5.31;91.36
7157;BME280;3620;49.862;8.758;2023-02-11T08:18:51;101102.91;;;5.41;90.96
7157;BME280;3620;49.862;8.758;2023-02-11T08:21:19;101103.91;;;5.72;90.33
7157;BME280;3620;49.862;8.758;2023-02-11T08:23:47;101102.19;;;5.74;90.35
7157;BME280;3620;49.862;8.758;2023-02-11T08:26:15;101097.94;;;5.86;89.26
7157;BME280;3620;49.862;8.758;2023-02-11T08:28:44;101098.72;;;5.78;89.38
7157;BME280;3620;49.862;8.758;2023-02-11T08:31:14;101107.41;;;5.71;90.49
7157;BME280;3620;49.862;8.758;2023-02-11T08:33:41;101097.81;;;5.65;89.67
7157;BME280;3620;49.862;8.758;2023-02-11T08:36:09;101098.69;;;5.72;89.96
7157;BME280;3620;49.862;8.758;2023-02-11T08:38:36;101105.78;;;5.94;88.80
7157;BME280;3620;49.862;8.758;2023-02-11T08:41:04;101110.13;;;5.92;88.93
7157;BME280;3620;49.862;8.758;2023-02-11T08:43:31;101110.16;;;5.97;88.49
7157;BME280;3620;49.862;8.758;2023-02-11T08:46:01;101115.38;;;6.03;88.15
7157;BME280;3620;49.862;8.758;2023-02-11T08:48:28;101129.34;;;6.08;87.60
7157;BME280;3620;49.862;8.758;2023-02-11T08:50:55;101127.47;;;5.79;88.58
7157;BME280;3620;49.862;8.758;2023-02-11T08:53:22;101127.59;;;6.10;87.77
7157;BME280;3620;49.862;8.758;2023-02-11T08:55:49;101132.84;;;6.16;87.21
7157;BME280;3620;49.862;8.758;2023-02-11T08:58:17;101135.44;;;6.10;87.38
7157;BME280;3620;49.862;8.758;2023-02-11T09:00:43;101143.22;;;5.88;88.05
7157;BME280;3620;49.862;8.758;2023-02-11T09:03:10;101148.44;;;5.88;89.02
7157;BME280;3620;49.862;8.758;2023-02-11T09:05:40;101146.69;;;5.93;89.04
7157;BME280;3620;49.862;8.758;2023-02-11T09:08:06;101152.03;;;6.24;86.91
7157;BME280;3620;49.862;8.758;2023-02-11T09:10:33;101153.69;;;6.07;87.40
7157;BME280;3620;49.862;8.758;2023-02-11T09:12:59;101148.56;;;6.34;86.57
7157;BME280;3620;49.862;8.758;2023-02-11T09:15:27;101149.41;;;6.21;86.74
7157;BME280;3620;49.862;8.758;2023-02-11T09:17:55;101144.13;;;6.04;87.50
7157;BME280;3620;49.862;8.758;2023-02-11T09:20:22;101146.75;;;6.00;87.75
7157;BME280;3620;49.862;8.758;2023-02-11T09:22:49;101146.78;;;6.15;87.03
7157;BME280;3620;49.862;8.758;2023-02-11T09:25:16;101143.25;;;6.07;87.28
7157;BME280;3620;49.862;8.758;2023-02-11T09:27:42;101143.38;;;6.35;86.94
7157;BME280;3620;49.862;8.758;2023-02-11T09:30:10;101147.75;;;6.54;86.15
7157;BME280;3620;49.862;8.758;2023-02-11T09:32:38;101145.09;;;6.38;85.26
7157;BME280;3620;49.862;8.758;2023-02-11T09:35:05;101145.13;;;6.53;85.40
7157;BME280;3620;49.862;8.758;2023-02-11T09:37:31;101151.19;;;6.37;84.95
7157;BME280;3620;49.862;8.758;2023-02-11T09:39:58;101145.91;;;6.14;87.73
7157;BME280;3620;49.862;8.758;2023-02-11T09:42:39;101152.06;;;6.45;86.97
7157;BME280;3620;49.862;8.758;2023-02-11T09:45:12;101153.84;;;6.58;87.56
7157;BME280;3620;49.862;8.758;2023-02-11T09:47:46;101153.91;;;7.06;87.29
7157;BME280;3620;49.862;8.758;2023-02-11T09:50:17;101172.19;;;6.81;85.29
7157;BME280;3620;49.862;8.758;2023-02-11T09:52:51;101168.69;;;6.73;85.89
7157;BME280;3620;49.862;8.758;2023-02-11T09:55:22;101172.88;;;6.12;88.00
7157;BME280;3620;49.862;8.758;2023-02-11T09:57:51;101176.44;;;6.32;87.54
7157;BME280;3620;49.862;8.758;2023-02-11T10:00:21;101170.41;;;6.57;87.17
7157;BME280;3620;49.862;8.758;2023-02-11T10:03:31;101169.50;;;6.31;87.71
7157;BME280;3620;49.862;8.758;2023-02-11T10:06:15;101177.38;;;6.44;89.09
7157;BME280;3620;49.862;8.758;2023-02-11T10:08:50;101166.06;;;6.68;87.67
7157;BME280;3620;49.862;8.758;2023-02-11T10:11:26;101173.06;;;6.87;87.11
7157;BME280;3620;49.862;8.758;2023-02-11T10:14:02;101171.31;;;7.31;85.30
7157;BME280;3620;49.862;8.758;2023-02-11T10:16:42;101178.25;;;7.45;84.01
7157;BME280;3620;49.862;8.758;2023-02-11T10:19:22;101173.03;;;7.38;84.38
7157;BME280;3620;49.862;8.758;2023-02-11T10:22:00;101173.91;;;7.36;84.04
7157;BME280;3620;49.862;8.758;2023-02-11T10:24:31;101173.06;;;7.32;84.66
7157;BME280;3620;49.862;8.758;2023-02-11T10:26:59;101174.81;;;7.39;84.75
7157;BME280;3620;49.862;8.758;2023-02-11T10:29:38;101163.44;;;7.45;84.29
7157;BME280;3620;49.862;8.758;2023-02-11T10:32:14;101158.22;;;7.34;84.63
7157;BME280;3620;49.862;8.758;2023-02-11T10:34:48;101155.59;;;7.34;84.66
7157;BME280;3620;49.862;8.758;2023-02-11T10:37:14;101150.38;;;7.34;84.39
7157;BME280;3620;49.862;8.758;2023-02-11T10:39:41;101157.31;;;7.54;85.02
7157;BME280;3620;49.862;8.758;2023-02-11T10:42:10;101155.41;;;7.98;83.24
7157;BME280;3620;49.862;8.758;2023-02-11T10:44:40;101151.22;;;7.49;84.01
7157;BME280;3620;49.862;8.758;2023-02-11T10:47:11;101152.00;;;7.72;82.99
7157;BME280;3620;49.862;8.758;2023-02-11T10:49:39;101156.44;;;7.56;83.65
7157;BME280;3620;49.862;8.758;2023-02-11T10:52:20;101152.03;;;7.66;83.37
7157;BME280;3620;49.862;8.758;2023-02-11T10:54:56;101164.22;;;7.83;82.81
7157;BME280;3620;49.862;8.758;2023-02-11T10:57:27;101165.84;;;8.07;80.93
7157;BME280;3620;49.862;8.758;2023-02-11T10:59:57;101161.34;;;8.41;80.88
7157;BME280;3620;49.862;8.758;2023-02-11T11:02:28;101168.38;;;8.39;80.78
7157;BME280;3620;49.862;8.758;2023-02-11T11:05:00;101160.41;;;8.52;79.48
7157;BME280;3620;49.862;8.758;2023-02-11T11:07:30;101160.38;;;8.58;78.75
7157;BME280;3620;49.862;8.758;2023-02-11T11:10:00;101157.06;;;8.20;80.03
7157;BME280;3620;49.862;8.758;2023-02-11T11:12:34;101161.41;;;8.33;79.78
7157;BME280;3620;49.862;8.758;2023-02-11T11:15:16;101164.13;;;8.00;81.62
7157;BME280;3620;49.862;8.758;2023-02-11T11:17:44;101160.63;;;8.07;82.04
7157;BME280;3620;49.862;8.758;2023-02-11T11:20:25;101156.28;;;8.00;82.49
7157;BME280;3620;49.862;8.758;2023-02-11T11:23:09;101155.16;;;8.57;80.01
7157;BME280;3620;49.862;8.758;2023-02-11T11:25:39;101157.84;;;8.45;80.11
7157;BME280;3620;49.862;8.758;2023-02-11T11:28:19;101156.19;;;8.27;80.15
7157;BME280;3620;49.862;8.758;2023-02-11T11:30:46;101161.47;;;8.09;80.95
7157;BME280;3620;49.862;8.758;2023-02-11T11:33:18;101157.03;;;8.35;80.38
7157;BME280;3620;49.862;8.758;2023-02-11T11:35:54;101157.03;;;8.34;80.89
7157;BME280;3620;49.862;8.758;2023-02-11T11:38:24;101155.31;;;8.22;81.49
7157;BME280;3620;49.862;8.758;2023-02-11T11:41:16;101151.88;;;8.08;83.01
7157;BME280;3620;49.862;8.758;2023-02-11T11:44:02;101152.69;;;8.24;82.35
7157;BME280;3620;49.862;8.758;2023-02-11T11:46:32;101143.75;;;8.58;80.94
7157;BME280;3620;49.862;8.758;2023-02-11T11:49:19;101149.91;;;8.55;81.11
7157;BME280;3620;49.862;8.758;2023-02-11T11:51:56;101138.66;;;8.34;82.16
7157;BME280;3620;49.862;8.758;2023-02-11T11:54:26;101136.00;;;8.44;81.39
7157;BME280;3620;49.862;8.758;2023-02-11T11:56:59;101139.28;;;8.73;80.49
7157;BME280;3620;49.862;8.758;2023-02-11T11:59:27;101144.34;;;8.96;78.68
7157;BME280;3620;49.862;8.758;2023-02-11T12:05:01;101157.81;;;8.51;81.42
7157;BME280;3620;49.862;8.758;2023-02-11T12:07:43;101165.72;;;8.43;81.53
7157;BME280;3620;49.862;8.758;2023-02-11T12:10:31;101157.94;;;8.28;81.92
7157;BME280;3620;49.862;8.758;2023-02-11T12:13:18;101148.13;;;8.60;81.60
7157;BME280;3620;49.862;8.758;2023-02-11T12:15:56;101143.78;;;8.56;82.14
7157;BME280;3620;49.862;8.758;2023-02-11T12:18:38;101136.72;;;8.64;81.44
7157;BME280;3620;49.862;8.758;2023-02-11T12:21:20;101134.09;;;8.64;82.61
7157;BME280;3620;49.862;8.758;2023-02-11T12:24:04;101141.09;;;8.65;81.94
7157;BME280;3620;49.862;8.758;2023-02-11T12:26:40;101141.81;;;8.85;81.44
7157;BME280;3620;49.862;8.758;2023-02-11T12:29:19;101142.69;;;8.88;80.93
7157;BME280;3620;49.862;8.758;2023-02-11T12:32:00;101144.59;;;8.64;82.69
7157;BME280;3620;49.862;8.758;2023-02-11T12:37:41;101141.13;;;8.61;82.69
7157;BME280;3620;49.862;8.758;2023-02-11T12:40:15;101126.13;;;8.76;82.10
7157;BME280;3620;49.862;8.758;2023-02-11T12:42:51;101137.19;;;9.15;80.50
7157;BME280;3620;49.862;8.758;2023-02-11T12:48:57;101127.06;;;8.69;82.76
7157;BME280;3620;49.862;8.758;2023-02-11T12:51:39;101125.38;;;8.62;83.47
7157;BME280;3620;49.862;8.758;2023-02-11T12:54:18;101118.97;;;9.00;82.48
7157;BME280;3620;49.862;8.758;2023-02-11T12:56:51;101123.38;;;8.98;81.36
7157;BME280;3620;49.862;8.758;2023-02-11T12:59:32;101107.72;;;8.82;82.62
7157;BME280;3620;49.862;8.758;2023-02-11T13:02:03;101111.25;;;8.81;82.02
7157;BME280;3620;49.862;8.758;2023-02-11T13:04:37;101101.56;;;8.88;82.59
7157;BME280;3620;49.862;8.758;2023-02-11T13:07:09;101097.34;;;8.70;82.57
7157;BME280;3620;49.862;8.758;2023-02-11T13:09:42;101088.63;;;8.62;82.75
7157;BME280;3620;49.862;8.758;2023-02-11T13:12:11;101092.09;;;8.70;82.47
7157;BME280;3620;49.862;8.758;2023-02-11T13:15:02;101100.59;;;9.00;81.45
7157;BME280;3620;49.862;8.758;2023-02-11T13:17:35;101107.84;;;8.70;83.00
7157;BME280;3620;49.862;8.758;2023-02-11T13:20:14;101106.13;;;8.66;83.17
7157;BME280;3620;49.862;8.758;2023-02-11T13:22:45;101095.56;;;8.75;83.63
7157;BME280;3620;49.862;8.758;2023-02-11T13:25:20;101101.00;;;8.48;84.04
7157;BME280;3620;49.862;8.758;2023-02-11T13:27:54;101101.94;;;8.38;85.22
7157;BME280;3620;49.862;8.758;2023-02-11T13:30:26;101092.16;;;8.58;85.20
7157;BME280;3620;49.862;8.758;2023-02-11T13:33:19;101096.25;;;8.91;83.86
7157;BME280;3620;49.862;8.758;2023-02-11T13:36:12;101103.31;;;8.84;84.04
7157;BME280;3620;49.862;8.758;2023-02-11T13:38:40;101095.44;;;8.84;84.11
7157;BME280;3620;49.862;8.758;2023-02-11T13:41:17;101084.22;;;8.67;84.31
7157;BME280;3620;49.862;8.758;2023-02-11T13:43:56;101091.09;;;8.83;84.19
7157;BME280;3620;49.862;8.758;2023-02-11T13:46:27;101083.94;;;9.02;83.44
7157;BME280;3620;49.862;8.758;2023-02-11T13:48:54;101086.47;;;9.10;83.25
7157;BME280;3620;49.862;8.758;2023-02-11T13:51:34;101083.88;;;9.07;82.90
7157;BME280;3620;49.862;8.758;2023-02-11T13:54:03;101083.16;;;8.93;83.91